createdAt,value
2019-02-28T00:01:01.846Z,49.82
2019-02-28T00:04:07.852Z,49.95
2019-02-28T00:07:17.616Z,49.10
2019-02-28T00:10:21.415Z,48.88
2019-02-28T00:13:27.228Z,49.40
2019-02-28T00:16:35.623Z,49.19
2019-02-28T00:19:40.951Z,49.22
2019-02-28T00:22:49.308Z,49.37
2019-02-28T00:25:54.246Z,49.64
2019-02-28T00:29:00.404Z,49.42
2019-02-28T00:32:07.251Z,49.07
2019-02-28T00:35:14.054Z,49.18
2019-02-28T00:38:20.094Z,48.91
2019-02-28T00:41:25.940Z,48.64
2019-02-28T00:44:31.896Z,48.75
2019-02-28T00:47:37.836Z,48.85
2019-02-28T00:50:43.885Z,48.89
2019-02-28T00:53:49.838Z,48.66
2019-02-28T00:56:55.810Z,49.23
2019-02-28T01:00:05.116Z,48.31
2019-02-28T01:03:10.545Z,48.58
2019-02-28T01:06:16.578Z,48.74
2019-02-28T01:09:22.569Z,48.53
2019-02-28T01:12:28.362Z,48.03
2019-02-28T01:15:34.266Z,48.12
2019-02-28T01:18:40.056Z,48.07
2019-02-28T01:21:45.844Z,48.26
2019-02-28T01:24:51.722Z,48.11
2019-02-28T01:27:57.604Z,47.60
2019-02-28T01:31:03.414Z,47.43
2019-02-28T01:34:09.206Z,47.19
2019-02-28T01:37:15.051Z,47.20
2019-02-28T01:40:22.050Z,47.28
2019-02-28T01:43:28.799Z,47.04
2019-02-28T01:46:35.356Z,47.42
2019-02-28T01:49:41.234Z,46.64
2019-02-28T01:52:47.114Z,46.42
2019-02-28T01:55:52.918Z,46.82
2019-02-28T01:58:59.797Z,46.60
2019-02-28T02:02:06.966Z,47.42
2019-02-28T02:05:13.053Z,47.51
2019-02-28T02:08:18.938Z,47.74
2019-02-28T02:11:26.675Z,47.69
2019-02-28T02:14:32.533Z,48.12
2019-02-28T02:17:38.366Z,48.35
2019-02-28T02:20:44.265Z,48.05
2019-02-28T02:23:52.970Z,48.68
2019-02-28T02:26:57.659Z,49.25
2019-02-28T02:30:03.599Z,49.36
2019-02-28T02:33:13.651Z,49.16
2019-02-28T02:36:17.774Z,49.28
2019-02-28T02:39:23.709Z,48.80
2019-02-28T02:42:29.507Z,48.74
2019-02-28T02:45:41.923Z,48.36
2019-02-28T02:48:43.384Z,48.26
2019-02-28T02:51:50.734Z,48.06
2019-02-28T02:54:56.636Z,48.21
2019-02-28T02:58:02.436Z,48.29
2019-02-28T03:01:08.317Z,47.80
2019-02-28T03:04:21.497Z,47.96
2019-02-28T03:07:24.544Z,48.43
2019-02-28T03:10:29.452Z,48.30
2019-02-28T03:13:42.144Z,48.41
2019-02-28T03:16:42.857Z,48.68
2019-02-28T03:19:48.768Z,48.35
2019-02-28T03:22:54.586Z,48.97
2019-02-28T03:26:05.724Z,49.35
2019-02-28T03:29:08.942Z,49.95
2019-02-28T03:32:14.887Z,50.71
2019-02-28T03:35:20.898Z,51.01
2019-02-28T03:38:26.751Z,50.84
2019-02-28T03:41:32.524Z,50.40
2019-02-28T03:44:38.503Z,50.71
2019-02-28T03:47:44.559Z,50.66
2019-02-28T03:50:55.204Z,49.92
2019-02-28T03:53:58.205Z,50.30
2019-02-28T03:57:04.100Z,50.46
2019-02-28T04:00:19.883Z,50.20
2019-02-28T04:03:25.973Z,50.37
2019-02-28T04:06:31.984Z,50.20
2019-02-28T04:09:43.749Z,50.52
2019-02-28T04:12:46.906Z,50.14
2019-02-28T04:16:07.632Z,50.55
2019-02-28T04:19:00.485Z,50.87
2019-02-28T04:22:06.499Z,50.78
2019-02-28T04:25:12.521Z,50.27
2019-02-28T04:28:19.078Z,49.96
2019-02-28T04:31:26.134Z,49.75
2019-02-28T04:34:31.940Z,49.90
2019-02-28T04:37:44.630Z,49.42
2019-02-28T04:40:45.432Z,49.71
2019-02-28T04:43:51.328Z,49.19
2019-02-28T04:46:57.320Z,49.16
2019-02-28T04:50:03.325Z,48.93
2019-02-28T04:53:09.099Z,48.66
2019-02-28T04:56:14.987Z,49.04
2019-02-28T04:59:20.819Z,48.33
2019-02-28T05:02:26.824Z,48.21
2019-02-28T05:05:32.787Z,48.35
2019-02-28T05:08:39.694Z,48.37
2019-02-28T05:11:46.715Z,48.18
2019-02-28T05:14:55.304Z,47.66
2019-02-28T05:18:00.168Z,47.43
2019-02-28T05:21:06.157Z,47.54
2019-02-28T05:24:12.012Z,47.23
2019-02-28T05:27:17.908Z,47.29
2019-02-28T05:30:23.734Z,46.97
2019-02-28T05:33:30.660Z,46.74
2019-02-28T05:36:38.079Z,47.10
2019-02-28T05:39:44.185Z,46.87
2019-02-28T05:42:49.987Z,46.60
2019-02-28T05:45:55.802Z,46.19
2019-02-28T05:49:01.707Z,46.27
2019-02-28T05:52:07.490Z,46.13
2019-02-28T05:55:13.540Z,45.64
2019-02-28T05:58:20.937Z,45.47
2019-02-28T06:01:26.911Z,45.69
2019-02-28T06:04:34.150Z,45.85
2019-02-28T06:07:40.390Z,45.06
2019-02-28T06:10:46.219Z,44.50
2019-02-28T06:13:52.697Z,43.57
2019-02-28T06:16:59.432Z,42.85
2019-02-28T06:20:06.250Z,42.45
2019-02-28T06:23:12.297Z,41.73
2019-02-28T06:26:18.188Z,41.06
2019-02-28T06:29:24.021Z,41.75
2019-02-28T06:32:29.883Z,41.45
2019-02-28T06:35:35.907Z,41.08
2019-02-28T06:38:41.718Z,40.48
2019-02-28T06:41:47.644Z,39.86
2019-02-28T06:44:53.445Z,39.22
2019-02-28T06:47:59.558Z,38.70
2019-02-28T06:51:05.696Z,38.18
2019-02-28T06:54:12.084Z,37.79
2019-02-28T06:57:17.905Z,37.34
2019-02-28T07:00:23.813Z,37.29
2019-02-28T07:03:29.617Z,36.76
2019-02-28T07:06:36.555Z,36.39
2019-02-28T07:09:42.500Z,35.77
2019-02-28T07:12:48.340Z,36.03
2019-02-28T07:15:55.600Z,35.24
2019-02-28T07:19:01.666Z,35.17
2019-02-28T07:22:07.678Z,34.64
2019-02-28T07:25:15.271Z,34.25
2019-02-28T07:28:21.244Z,33.87
2019-02-28T07:31:27.151Z,34.40
2019-02-28T07:34:32.962Z,34.99
2019-02-28T07:37:38.983Z,35.04
2019-02-28T07:40:45.718Z,34.68
2019-02-28T07:43:51.584Z,35.18
2019-02-28T07:46:57.376Z,35.03
2019-02-28T07:50:03.177Z,34.74
2019-02-28T07:53:09.842Z,34.63
2019-02-28T07:56:15.764Z,34.19
2019-02-28T07:59:21.550Z,34.03
2019-02-28T08:02:27.471Z,33.54
2019-02-28T08:05:33.364Z,33.74
2019-02-28T08:08:39.257Z,33.97
2019-02-28T08:11:45.167Z,33.49
2019-02-28T08:14:51.170Z,33.52
2019-02-28T08:17:58.213Z,33.83
2019-02-28T08:21:05.327Z,33.22
2019-02-28T08:24:11.716Z,34.04
2019-02-28T08:27:18.663Z,33.79
2019-02-28T08:30:24.946Z,33.61
2019-02-28T08:33:31.966Z,34.03
2019-02-28T08:36:37.778Z,33.21
2019-02-28T08:39:43.591Z,32.77
2019-02-28T08:42:50.047Z,32.96
2019-02-28T08:45:56.196Z,32.67
2019-02-28T08:49:06.332Z,33.46
2019-02-28T08:52:09.637Z,32.93
2019-02-28T08:55:17.017Z,32.70
2019-02-28T08:58:22.877Z,31.81
2019-02-28T09:01:28.777Z,31.36
2019-02-28T09:04:40.971Z,31.34
2019-02-28T09:07:42.418Z,31.60
2019-02-28T09:10:49.535Z,31.48
2019-02-28T09:13:55.348Z,31.03
2019-02-28T09:17:01.255Z,30.24
2019-02-28T09:20:10.541Z,29.86
2019-02-28T09:23:15.214Z,29.66
2019-02-28T09:26:21.067Z,29.74
2019-02-28T09:29:26.920Z,30.12
2019-02-28T09:32:32.838Z,29.85
2019-02-28T09:35:38.765Z,29.36
2019-02-28T09:38:45.304Z,28.79
2019-02-28T09:41:51.867Z,28.72
2019-02-28T09:44:57.790Z,27.91
2019-02-28T09:48:05.000Z,27.61
2019-02-28T09:51:11.096Z,27.56
2019-02-28T09:54:16.917Z,27.94
2019-02-28T09:57:22.767Z,27.52
2019-02-28T10:00:29.164Z,27.23
2019-02-28T10:03:34.978Z,27.06
2019-02-28T10:06:40.803Z,27.22
2019-02-28T10:09:48.712Z,27.25
2019-02-28T10:12:54.409Z,26.54
2019-02-28T10:16:00.297Z,26.86
2019-02-28T10:19:06.307Z,25.55
2019-02-28T10:22:12.916Z,24.82
2019-02-28T10:25:19.604Z,24.41
2019-02-28T10:28:25.561Z,24.62
2019-02-28T10:31:36.119Z,25.66
2019-02-28T10:34:39.082Z,25.97
2019-02-28T10:37:45.098Z,25.20
2019-02-28T10:40:52.484Z,25.10
2019-02-28T10:43:58.544Z,24.80
2019-02-28T10:47:04.585Z,25.42
2019-02-28T10:50:13.682Z,25.65
2019-02-28T10:53:19.710Z,25.58
2019-02-28T10:56:25.635Z,25.61
2019-02-28T10:59:31.573Z,25.42
2019-02-28T11:02:37.537Z,25.47
2019-02-28T11:05:45.841Z,25.22
2019-02-28T11:08:51.727Z,25.19
2019-02-28T11:11:57.772Z,24.98
2019-02-28T11:15:03.817Z,24.95
2019-02-28T11:18:11.739Z,24.87
2019-02-28T11:21:17.851Z,24.53
2019-02-28T11:24:26.957Z,24.76
2019-02-28T11:27:31.756Z,24.31
2019-02-28T11:30:38.036Z,24.25
2019-02-28T11:33:43.936Z,24.25
2019-02-28T11:36:49.850Z,23.73
2019-02-28T11:39:55.867Z,23.51
2019-02-28T11:43:03.853Z,23.58
2019-02-28T11:46:11.301Z,24.03
2019-02-28T11:49:17.218Z,23.50
2019-02-28T11:52:24.547Z,23.47
2019-02-28T11:55:30.625Z,23.47
2019-02-28T11:58:36.646Z,23.05
2019-02-28T12:01:47.426Z,23.05
2019-02-28T12:04:50.203Z,22.88
2019-02-28T12:07:56.119Z,22.32
2019-02-28T12:11:02.870Z,22.33
2019-02-28T12:14:08.746Z,22.33
2019-02-28T12:17:15.178Z,21.80
2019-02-28T12:20:25.942Z,22.09
2019-02-28T12:23:28.558Z,22.12
2019-02-28T12:26:34.544Z,22.05
2019-02-28T12:29:40.436Z,21.90
2019-02-28T12:32:46.339Z,21.09
2019-02-28T12:35:52.249Z,20.70
2019-02-28T12:38:59.378Z,20.60
2019-02-28T12:42:05.737Z,20.94
2019-02-28T12:45:15.012Z,21.22
2019-02-28T12:48:20.837Z,21.85
2019-02-28T12:51:26.658Z,21.97
2019-02-28T12:54:33.503Z,22.48
2019-02-28T12:57:41.171Z,22.80
2019-02-28T13:00:47.095Z,22.84
2019-02-28T13:03:57.743Z,23.10
2019-02-28T13:07:00.449Z,22.79
2019-02-28T13:10:07.281Z,22.79
2019-02-28T13:13:13.193Z,22.59
2019-02-28T13:16:20.796Z,22.48
2019-02-28T13:19:28.949Z,22.34
2019-02-28T13:22:34.659Z,22.21
2019-02-28T13:25:40.385Z,21.41
2019-02-28T13:28:46.329Z,21.71
2019-02-28T13:31:52.177Z,21.39
2019-02-28T13:34:58.008Z,21.92
2019-02-28T13:38:03.712Z,22.13
2019-02-28T13:41:09.529Z,22.20
2019-02-28T13:44:15.324Z,22.86
2019-02-28T13:47:21.079Z,22.00
2019-02-28T13:50:27.318Z,22.00
2019-02-28T13:53:33.408Z,21.86
2019-02-28T13:56:40.337Z,22.06
2019-02-28T13:59:46.069Z,21.74
2019-02-28T14:02:53.686Z,21.45
2019-02-28T14:05:59.568Z,22.40
2019-02-28T14:09:08.697Z,22.40
2019-02-28T14:12:20.665Z,22.70
2019-02-28T14:15:31.126Z,22.70
2019-02-28T14:18:42.503Z,23.07
2019-02-28T14:21:55.644Z,23.78
2019-02-28T14:25:05.130Z,23.78
2019-02-28T14:28:10.374Z,23.95
2019-02-28T14:31:16.160Z,24.76
2019-02-28T14:34:22.021Z,24.53
2019-02-28T14:37:27.749Z,24.05
2019-02-28T14:40:33.521Z,24.32
2019-02-28T14:43:39.249Z,24.39
2019-02-28T14:46:45.035Z,24.39
2019-02-28T14:49:52.789Z,24.85
2019-02-28T14:52:58.769Z,25.00
2019-02-28T14:56:07.233Z,25.03
2019-02-28T14:59:12.939Z,24.90
2019-02-28T15:02:18.762Z,24.89
2019-02-28T15:05:24.678Z,24.90
2019-02-28T15:08:30.607Z,24.87
2019-02-28T15:11:36.512Z,25.06
2019-02-28T15:14:43.243Z,25.46
2019-02-28T15:17:50.628Z,25.22
2019-02-28T15:20:56.555Z,25.26
2019-02-28T15:24:05.404Z,25.46
2019-02-28T15:27:10.072Z,25.71
2019-02-28T15:30:18.315Z,25.48
2019-02-28T15:33:27.404Z,25.30
2019-02-28T15:36:31.950Z,25.28
2019-02-28T15:39:37.862Z,25.23
2019-02-28T15:42:44.109Z,25.55
2019-02-28T15:45:50.307Z,25.74
2019-02-28T15:48:56.200Z,25.95
2019-02-28T15:52:05.208Z,26.27
2019-02-28T15:55:10.180Z,26.36
2019-02-28T15:58:17.202Z,26.56
2019-02-28T16:01:23.079Z,26.83
2019-02-28T16:04:28.983Z,27.21
2019-02-28T16:07:34.952Z,27.51
2019-02-28T16:10:40.864Z,27.89
2019-02-28T16:13:46.795Z,28.20
2019-02-28T16:16:52.716Z,28.42
2019-02-28T16:19:58.645Z,28.67
2019-02-28T16:23:04.828Z,28.75
2019-02-28T16:26:10.820Z,28.76
2019-02-28T16:29:20.706Z,28.94
2019-02-28T16:32:25.418Z,28.99
2019-02-28T16:35:31.497Z,29.27
2019-02-28T16:38:37.423Z,29.38
2019-02-28T16:41:43.513Z,29.47
2019-02-28T16:44:49.456Z,29.62
2019-02-28T16:47:55.677Z,29.64
2019-02-28T16:51:02.957Z,29.78
2019-02-28T16:54:08.855Z,29.94
2019-02-28T16:57:14.952Z,30.23
2019-02-28T17:00:21.129Z,30.37
2019-02-28T17:03:27.000Z,30.66
2019-02-28T17:06:35.598Z,30.85
2019-02-28T17:09:43.259Z,30.93
2019-02-28T17:13:06.977Z,31.02
2019-02-28T17:16:37.086Z,31.09
2019-02-28T17:19:42.717Z,31.29
2019-02-28T17:22:48.871Z,31.39
2019-02-28T17:25:56.471Z,31.56
2019-02-28T17:29:07.528Z,31.54
2019-02-28T17:32:13.569Z,31.94
2019-02-28T17:35:19.647Z,31.56
2019-02-28T17:38:25.547Z,30.39
2019-02-28T17:41:33.988Z,30.17
2019-02-28T17:45:24.554Z,29.52
2019-02-28T17:48:58.875Z,28.76
2019-02-28T17:52:34.425Z,28.85
2019-02-28T17:56:22.795Z,28.64
2019-02-28T18:00:07.510Z,28.78
2019-02-28T18:04:24.070Z,28.92
2019-02-28T18:08:00.543Z,29.42
2019-02-28T18:11:38.027Z,30.14
2019-02-28T18:14:58.894Z,31.32
2019-02-28T18:18:37.792Z,31.95
2019-02-28T18:22:25.780Z,32.50
2019-02-28T18:26:39.248Z,32.81
2019-02-28T18:30:29.199Z,33.64
2019-02-28T18:33:37.793Z,34.28
2019-02-28T18:36:44.349Z,35.02
2019-02-28T18:39:50.503Z,35.23
2019-02-28T18:42:57.916Z,34.94
2019-02-28T18:46:04.075Z,34.88
2019-02-28T18:49:11.305Z,34.69
2019-02-28T18:52:18.069Z,34.06
2019-02-28T18:55:24.230Z,33.16
2019-02-28T18:58:30.253Z,32.06
2019-02-28T19:01:36.256Z,31.78
2019-02-28T19:04:42.156Z,31.72
2019-02-28T19:07:48.037Z,31.79
2019-02-28T19:10:55.053Z,32.11
2019-02-28T19:14:00.997Z,32.28
2019-02-28T19:17:07.155Z,32.97
2019-02-28T19:20:13.138Z,33.33
2019-02-28T19:23:19.018Z,33.30
2019-02-28T19:26:24.913Z,33.41
2019-02-28T19:29:32.156Z,33.64
2019-02-28T19:32:38.219Z,33.45
2019-02-28T19:35:44.185Z,33.60
2019-02-28T19:38:50.178Z,33.59
2019-02-28T19:41:56.099Z,33.43
2019-02-28T19:45:02.030Z,33.43
2019-02-28T19:48:08.140Z,33.31
2019-02-28T19:51:14.006Z,33.45
2019-02-28T19:54:19.900Z,33.53
2019-02-28T19:57:25.817Z,33.67
2019-02-28T20:00:31.696Z,33.48
2019-02-28T20:03:37.598Z,33.65
2019-02-28T20:06:43.538Z,33.47
2019-02-28T20:09:49.450Z,33.28
2019-02-28T20:12:55.545Z,33.23
2019-02-28T20:16:01.655Z,33.08
2019-02-28T20:19:07.705Z,33.21
2019-02-28T20:22:13.644Z,33.38
2019-02-28T20:25:19.877Z,33.33
2019-02-28T20:28:26.016Z,33.51
2019-02-28T20:31:32.229Z,33.06
2019-02-28T20:34:38.217Z,32.69
2019-02-28T20:37:44.215Z,32.67
2019-02-28T20:40:50.260Z,32.78
2019-02-28T20:43:56.263Z,32.54
2019-02-28T20:47:02.265Z,32.59
2019-02-28T20:50:12.678Z,32.82
2019-02-28T20:53:18.640Z,32.94
2019-02-28T20:56:24.699Z,33.58
2019-02-28T20:59:30.576Z,33.85
2019-02-28T21:02:36.569Z,33.78
2019-02-28T21:05:42.558Z,33.73
2019-02-28T21:08:48.556Z,33.72
2019-02-28T21:11:54.445Z,33.51
2019-02-28T21:15:01.496Z,33.75
2019-02-28T21:18:08.836Z,33.88
2019-02-28T21:21:14.745Z,34.07
2019-02-28T21:24:20.656Z,34.07
2019-02-28T21:27:26.588Z,34.96
2019-02-28T21:30:32.587Z,34.96
2019-02-28T21:33:38.488Z,35.30
2019-02-28T21:36:44.791Z,35.21
2019-02-28T21:39:50.757Z,35.31
2019-02-28T21:42:56.820Z,35.37
2019-02-28T21:46:03.068Z,35.67
2019-02-28T21:49:09.163Z,35.29
2019-02-28T21:52:15.580Z,34.81
2019-02-28T21:55:21.747Z,34.88
2019-02-28T21:58:27.716Z,34.76
2019-02-28T22:01:33.733Z,34.62
2019-02-28T22:04:39.716Z,34.22
2019-02-28T22:07:45.724Z,33.79
2019-02-28T22:10:51.626Z,33.10
2019-02-28T22:13:57.637Z,32.76
2019-02-28T22:17:03.529Z,32.13
2019-02-28T22:20:11.462Z,32.07
2019-02-28T22:23:17.352Z,31.54
2019-02-28T22:26:23.241Z,30.99
2019-02-28T22:29:29.124Z,31.07
2019-02-28T22:32:41.197Z,31.08
2019-02-28T22:35:50.083Z,30.66
2019-02-28T22:38:55.994Z,30.66
2019-02-28T22:42:01.888Z,30.51
2019-02-28T22:45:08.697Z,30.30
2019-02-28T22:48:14.612Z,30.50
2019-02-28T22:51:20.492Z,30.08
2019-02-28T22:54:26.345Z,29.76
2019-02-28T22:57:32.223Z,30.12
2019-02-28T23:01:06.385Z,29.88
2019-02-28T23:04:12.538Z,29.92
2019-02-28T23:07:18.457Z,30.11
2019-02-28T23:10:24.330Z,29.84
2019-02-28T23:13:30.235Z,30.03
2019-02-28T23:16:36.120Z,30.05
2019-02-28T23:19:42.130Z,30.15
2019-02-28T23:22:48.019Z,30.05
2019-02-28T23:25:54.003Z,30.16
2019-02-28T23:29:08.004Z,30.67
2019-02-28T23:32:46.770Z,30.94
2019-02-28T23:35:52.657Z,31.25
2019-02-28T23:38:58.618Z,31.46
2019-02-28T23:42:04.774Z,31.60
2019-02-28T23:45:10.755Z,31.84
2019-02-28T23:48:16.624Z,31.86
2019-02-28T23:51:22.483Z,31.96
2019-02-28T23:54:28.408Z,31.61
2019-02-28T23:57:34.315Z,31.70
